sensor_id;sensor_type;location;lat;lon;timestamp;pressure;altitude;pressure_sealevel;temperature
20058;BMP180;10189;49.546;7.906;2023-10-19T00:01:16;96351.00;;;14.20
20058;BMP180;10189;49.546;7.906;2023-10-19T00:03:43;96355.00;;;14.20
20058;BMP180;10189;49.546;7.906;2023-10-19T00:06:15;96352.00;;;14.30
20058;BMP180;10189;49.546;7.906;2023-10-19T00:08:43;96345.00;;;14.20
20058;BMP180;10189;49.546;7.906;2023-10-19T00:11:10;96342.00;;;14.30
20058;BMP180;10189;49.546;7.906;2023-10-19T00:13:48;96351.00;;;14.40
20058;BMP180;10189;49.546;7.906;2023-10-19T00:16:17;96353.00;;;14.60
20058;BMP180;10189;49.546;7.906;2023-10-19T00:18:46;96347.00;;;14.60
20058;BMP180;10189;49.546;7.906;2023-10-19T00:21:15;96341.00;;;14.70
20058;BMP180;10189;49.546;7.906;2023-10-19T00:23:53;96340.00;;;14.80
20058;BMP180;10189;49.546;7.906;2023-10-19T00:26:24;96343.00;;;14.70
20058;BMP180;10189;49.546;7.906;2023-10-19T00:29:00;96333.00;;;14.80
20058;BMP180;10189;49.546;7.906;2023-10-19T00:31:40;96342.00;;;14.70
20058;BMP180;10189;49.546;7.906;2023-10-19T00:34:06;96334.00;;;14.70
20058;BMP180;10189;49.546;7.906;2023-10-19T00:36:32;96336.00;;;14.70
20058;BMP180;10189;49.546;7.906;2023-10-19T00:39:00;96336.00;;;14.80
20058;BMP180;10189;49.546;7.906;2023-10-19T00:41:39;96325.00;;;14.90
20058;BMP180;10189;49.546;7.906;2023-10-19T00:44:06;96334.00;;;15.00
20058;BMP180;10189;49.546;7.906;2023-10-19T00:46:41;96326.00;;;15.00
20058;BMP180;10189;49.546;7.906;2023-10-19T00:49:09;96324.00;;;15.10
20058;BMP180;10189;49.546;7.906;2023-10-19T00:51:45;96318.00;;;15.20
20058;BMP180;10189;49.546;7.906;2023-10-19T00:54:29;96323.00;;;15.40
20058;BMP180;10189;49.546;7.906;2023-10-19T00:57:00;96317.00;;;15.40
20058;BMP180;10189;49.546;7.906;2023-10-19T00:59:34;96312.00;;;15.50
20058;BMP180;10189;49.546;7.906;2023-10-19T01:02:13;96314.00;;;15.50
20058;BMP180;10189;49.546;7.906;2023-10-19T01:04:52;96320.00;;;15.50
20058;BMP180;10189;49.546;7.906;2023-10-19T01:07:23;96316.00;;;15.60
20058;BMP180;10189;49.546;7.906;2023-10-19T01:09:54;96312.00;;;15.60
20058;BMP180;10189;49.546;7.906;2023-10-19T01:12:25;96304.00;;;15.80
20058;BMP180;10189;49.546;7.906;2023-10-19T01:17:45;96313.00;;;15.70
20058;BMP180;10189;49.546;7.906;2023-10-19T01:20:17;96307.00;;;15.80
20058;BMP180;10189;49.546;7.906;2023-10-19T01:23:03;96303.00;;;15.80
20058;BMP180;10189;49.546;7.906;2023-10-19T01:28:34;96312.00;;;15.80
20058;BMP180;10189;49.546;7.906;2023-10-19T01:31:21;96307.00;;;15.80
20058;BMP180;10189;49.546;7.906;2023-10-19T01:33:54;96310.00;;;15.80
20058;BMP180;10189;49.546;7.906;2023-10-19T01:36:22;96297.00;;;15.80
20058;BMP180;10189;49.546;7.906;2023-10-19T01:38:49;96306.00;;;15.90
20058;BMP180;10189;49.546;7.906;2023-10-19T01:41:15;96299.00;;;16.10
20058;BMP180;10189;49.546;7.906;2023-10-19T01:43:46;96305.00;;;16.00
20058;BMP180;10189;49.546;7.906;2023-10-19T01:46:20;96303.00;;;16.00
20058;BMP180;10189;49.546;7.906;2023-10-19T01:49:01;96300.00;;;16.10
20058;BMP180;10189;49.546;7.906;2023-10-19T01:51:34;96301.00;;;16.20
20058;BMP180;10189;49.546;7.906;2023-10-19T01:54:07;96294.00;;;16.10
20058;BMP180;10189;49.546;7.906;2023-10-19T01:56:33;96296.00;;;16.10
20058;BMP180;10189;49.546;7.906;2023-10-19T01:59:02;96287.00;;;16.20
20058;BMP180;10189;49.546;7.906;2023-10-19T02:01:32;96288.00;;;16.20
20058;BMP180;10189;49.546;7.906;2023-10-19T02:04:02;96289.00;;;16.20
20058;BMP180;10189;49.546;7.906;2023-10-19T02:06:32;96283.00;;;16.20
20058;BMP180;10189;49.546;7.906;2023-10-19T02:09:12;96285.00;;;16.20
20058;BMP180;10189;49.546;7.906;2023-10-19T02:11:51;96293.00;;;16.20
20058;BMP180;10189;49.546;7.906;2023-10-19T02:14:22;96280.00;;;16.20
20058;BMP180;10189;49.546;7.906;2023-10-19T02:16:53;96270.00;;;16.30
20058;BMP180;10189;49.546;7.906;2023-10-19T02:19:23;96271.00;;;16.30
20058;BMP180;10189;49.546;7.906;2023-10-19T02:21:53;96261.00;;;16.40
20058;BMP180;10189;49.546;7.906;2023-10-19T02:24:20;96262.00;;;16.40
20058;BMP180;10189;49.546;7.906;2023-10-19T02:26:50;96257.00;;;16.30
20058;BMP180;10189;49.546;7.906;2023-10-19T02:29:17;96260.00;;;16.30
20058;BMP180;10189;49.546;7.906;2023-10-19T02:31:44;96263.00;;;16.20
20058;BMP180;10189;49.546;7.906;2023-10-19T02:34:13;96274.00;;;16.30
20058;BMP180;10189;49.546;7.906;2023-10-19T02:36:45;96256.00;;;16.30
20058;BMP180;10189;49.546;7.906;2023-10-19T02:39:13;96256.00;;;16.40
20058;BMP180;10189;49.546;7.906;2023-10-19T02:41:42;96255.00;;;16.30
20058;BMP180;10189;49.546;7.906;2023-10-19T02:44:18;96244.00;;;16.30
20058;BMP180;10189;49.546;7.906;2023-10-19T02:46:55;96249.00;;;16.30
20058;BMP180;10189;49.546;7.906;2023-10-19T02:49:27;96260.00;;;16.30
20058;BMP180;10189;49.546;7.906;2023-10-19T02:51:53;96255.00;;;16.30
20058;BMP180;10189;49.546;7.906;2023-10-19T02:54:22;96249.00;;;16.40
20058;BMP180;10189;49.546;7.906;2023-10-19T02:56:53;96254.00;;;16.30
20058;BMP180;10189;49.546;7.906;2023-10-19T02:59:23;96257.00;;;16.20
20058;BMP180;10189;49.546;7.906;2023-10-19T03:01:59;96257.00;;;16.20
20058;BMP180;10189;49.546;7.906;2023-10-19T03:04:39;96254.00;;;16.20
20058;BMP180;10189;49.546;7.906;2023-10-19T03:07:06;96248.00;;;16.10
20058;BMP180;10189;49.546;7.906;2023-10-19T03:09:33;96251.00;;;16.00
20058;BMP180;10189;49.546;7.906;2023-10-19T03:12:02;96246.00;;;16.00
20058;BMP180;10189;49.546;7.906;2023-10-19T03:14:31;96233.00;;;16.20
20058;BMP180;10189;49.546;7.906;2023-10-19T03:16:58;96237.00;;;16.30
20058;BMP180;10189;49.546;7.906;2023-10-19T03:19:26;96232.00;;;16.30
20058;BMP180;10189;49.546;7.906;2023-10-19T03:21:53;96222.00;;;16.40
20058;BMP180;10189;49.546;7.906;2023-10-19T03:24:26;96228.00;;;16.30
20058;BMP180;10189;49.546;7.906;2023-10-19T03:27:07;96229.00;;;16.30
20058;BMP180;10189;49.546;7.906;2023-10-19T03:29:50;96219.00;;;16.30
20058;BMP180;10189;49.546;7.906;2023-10-19T03:32:25;96211.00;;;16.30
20058;BMP180;10189;49.546;7.906;2023-10-19T03:34:58;96209.00;;;16.30
20058;BMP180;10189;49.546;7.906;2023-10-19T03:37:29;96214.00;;;16.10
20058;BMP180;10189;49.546;7.906;2023-10-19T03:39:56;96212.00;;;16.00
20058;BMP180;10189;49.546;7.906;2023-10-19T03:42:23;96216.00;;;16.00
20058;BMP180;10189;49.546;7.906;2023-10-19T03:44:53;96209.00;;;15.90
20058;BMP180;10189;49.546;7.906;2023-10-19T03:47:19;96216.00;;;15.80
20058;BMP180;10189;49.546;7.906;2023-10-19T03:49:47;96216.00;;;15.70
20058;BMP180;10189;49.546;7.906;2023-10-19T03:52:13;96200.00;;;15.80
20058;BMP180;10189;49.546;7.906;2023-10-19T03:54:40;96201.00;;;15.80
20058;BMP180;10189;49.546;7.906;2023-10-19T03:57:11;96184.00;;;15.90
20058;BMP180;10189;49.546;7.906;2023-10-19T03:59:41;96179.00;;;15.90
20058;BMP180;10189;49.546;7.906;2023-10-19T04:02:08;96188.00;;;15.90
20058;BMP180;10189;49.546;7.906;2023-10-19T04:04:45;96184.00;;;15.90
20058;BMP180;10189;49.546;7.906;2023-10-19T04:07:17;96179.00;;;16.00
20058;BMP180;10189;49.546;7.906;2023-10-19T04:09:56;96171.00;;;15.80
20058;BMP180;10189;49.546;7.906;2023-10-19T04:12:27;96179.00;;;15.60
20058;BMP180;10189;49.546;7.906;2023-10-19T04:14:58;96176.00;;;15.70
20058;BMP180;10189;49.546;7.906;2023-10-19T04:17:34;96171.00;;;15.60
20058;BMP180;10189;49.546;7.906;2023-10-19T04:20:02;96172.00;;;15.60
20058;BMP180;10189;49.546;7.906;2023-10-19T04:22:52;96173.00;;;15.60
20058;BMP180;10189;49.546;7.906;2023-10-19T04:25:20;96169.00;;;15.70
20058;BMP180;10189;49.546;7.906;2023-10-19T04:27:47;96171.00;;;16.00
20058;BMP180;10189;49.546;7.906;2023-10-19T04:30:15;96170.00;;;15.90
20058;BMP180;10189;49.546;7.906;2023-10-19T04:32:46;96159.00;;;15.90
20058;BMP180;10189;49.546;7.906;2023-10-19T04:35:13;96160.00;;;15.90
20058;BMP180;10189;49.546;7.906;2023-10-19T04:37:42;96159.00;;;16.00
20058;BMP180;10189;49.546;7.906;2023-10-19T04:40:11;96155.00;;;16.10
20058;BMP180;10189;49.546;7.906;2023-10-19T04:42:40;96159.00;;;16.20
20058;BMP180;10189;49.546;7.906;2023-10-19T04:45:06;96156.00;;;16.30
20058;BMP180;10189;49.546;7.906;2023-10-19T04:47:33;96158.00;;;16.30
20058;BMP180;10189;49.546;7.906;2023-10-19T04:50:03;96162.00;;;16.30
20058;BMP180;10189;49.546;7.906;2023-10-19T04:52:30;96164.00;;;16.40
20058;BMP180;10189;49.546;7.906;2023-10-19T04:54:57;96153.00;;;16.40
20058;BMP180;10189;49.546;7.906;2023-10-19T04:57:24;96158.00;;;16.40
20058;BMP180;10189;49.546;7.906;2023-10-19T04:59:50;96160.00;;;16.30
20058;BMP180;10189;49.546;7.906;2023-10-19T05:02:16;96152.00;;;16.40
20058;BMP180;10189;49.546;7.906;2023-10-19T05:04:42;96155.00;;;16.30
20058;BMP180;10189;49.546;7.906;2023-10-19T05:07:10;96145.00;;;16.30
20058;BMP180;10189;49.546;7.906;2023-10-19T05:09:38;96144.00;;;16.20
20058;BMP180;10189;49.546;7.906;2023-10-19T05:12:06;96147.00;;;16.00
20058;BMP180;10189;49.546;7.906;2023-10-19T05:14:36;96149.00;;;16.00
20058;BMP180;10189;49.546;7.906;2023-10-19T05:17:02;96142.00;;;16.00
20058;BMP180;10189;49.546;7.906;2023-10-19T05:19:34;96147.00;;;15.90
20058;BMP180;10189;49.546;7.906;2023-10-19T05:22:01;96153.00;;;15.80
20058;BMP180;10189;49.546;7.906;2023-10-19T05:24:28;96148.00;;;15.80
20058;BMP180;10189;49.546;7.906;2023-10-19T05:26:54;96151.00;;;15.80
20058;BMP180;10189;49.546;7.906;2023-10-19T05:29:21;96144.00;;;15.90
20058;BMP180;10189;49.546;7.906;2023-10-19T05:31:47;96149.00;;;15.90
20058;BMP180;10189;49.546;7.906;2023-10-19T05:34:23;96141.00;;;16.00
20058;BMP180;10189;49.546;7.906;2023-10-19T05:36:50;96138.00;;;16.10
20058;BMP180;10189;49.546;7.906;2023-10-19T05:39:17;96143.00;;;16.10
20058;BMP180;10189;49.546;7.906;2023-10-19T05:41:44;96141.00;;;16.10
20058;BMP180;10189;49.546;7.906;2023-10-19T05:44:10;96146.00;;;16.20
20058;BMP180;10189;49.546;7.906;2023-10-19T05:46:36;96151.00;;;16.20
20058;BMP180;10189;49.546;7.906;2023-10-19T05:49:02;96147.00;;;16.30
20058;BMP180;10189;49.546;7.906;2023-10-19T05:51:32;96145.00;;;16.30
20058;BMP180;10189;49.546;7.906;2023-10-19T05:53:58;96153.00;;;16.20
20058;BMP180;10189;49.546;7.906;2023-10-19T05:56:28;96147.00;;;16.20
20058;BMP180;10189;49.546;7.906;2023-10-19T05:58:56;96152.00;;;16.20
20058;BMP180;10189;49.546;7.906;2023-10-19T06:01:23;96147.00;;;16.20
20058;BMP180;10189;49.546;7.906;2023-10-19T06:03:49;96148.00;;;16.20
20058;BMP180;10189;49.546;7.906;2023-10-19T06:06:16;96153.00;;;16.20
20058;BMP180;10189;49.546;7.906;2023-10-19T06:08:43;96158.00;;;16.30
20058;BMP180;10189;49.546;7.906;2023-10-19T06:11:08;96158.00;;;16.30
20058;BMP180;10189;49.546;7.906;2023-10-19T06:13:35;96158.00;;;16.40
20058;BMP180;10189;49.546;7.906;2023-10-19T06:16:00;96164.00;;;16.30
20058;BMP180;10189;49.546;7.906;2023-10-19T06:18:26;96158.00;;;16.30
20058;BMP180;10189;49.546;7.906;2023-10-19T06:20:55;96161.00;;;16.40
20058;BMP180;10189;49.546;7.906;2023-10-19T06:23:21;96166.00;;;16.50
20058;BMP180;10189;49.546;7.906;2023-10-19T06:25:47;96160.00;;;16.40
20058;BMP180;10189;49.546;7.906;2023-10-19T06:28:14;96174.00;;;16.40
20058;BMP180;10189;49.546;7.906;2023-10-19T06:30:40;96163.00;;;16.40
20058;BMP180;10189;49.546;7.906;2023-10-19T06:33:06;96167.00;;;16.50
20058;BMP180;10189;49.546;7.906;2023-10-19T06:35:33;96166.00;;;16.50
20058;BMP180;10189;49.546;7.906;2023-10-19T06:38:02;96166.00;;;16.50
20058;BMP180;10189;49.546;7.906;2023-10-19T06:40:30;96160.00;;;16.50
20058;BMP180;10189;49.546;7.906;2023-10-19T06:42:58;96170.00;;;16.60
20058;BMP180;10189;49.546;7.906;2023-10-19T06:45:25;96170.00;;;16.60
20058;BMP180;10189;49.546;7.906;2023-10-19T06:47:52;96166.00;;;16.60
20058;BMP180;10189;49.546;7.906;2023-10-19T06:50:20;96174.00;;;16.60
20058;BMP180;10189;49.546;7.906;2023-10-19T06:52:47;96169.00;;;16.60
20058;BMP180;10189;49.546;7.906;2023-10-19T06:55:14;96169.00;;;16.60
20058;BMP180;10189;49.546;7.906;2023-10-19T06:57:43;96161.00;;;16.60
20058;BMP180;10189;49.546;7.906;2023-10-19T07:00:14;96161.00;;;16.70
20058;BMP180;10189;49.546;7.906;2023-10-19T07:02:51;96165.00;;;16.70
20058;BMP180;10189;49.546;7.906;2023-10-19T07:05:18;96171.00;;;16.80
20058;BMP180;10189;49.546;7.906;2023-10-19T07:07:46;96176.00;;;16.70
20058;BMP180;10189;49.546;7.906;2023-10-19T07:10:14;96170.00;;;16.70
20058;BMP180;10189;49.546;7.906;2023-10-19T07:12:44;96168.00;;;16.80
20058;BMP180;10189;49.546;7.906;2023-10-19T07:15:11;96168.00;;;16.80
20058;BMP180;10189;49.546;7.906;2023-10-19T07:17:43;96155.00;;;16.90
20058;BMP180;10189;49.546;7.906;2023-10-19T07:20:11;96155.00;;;17.10
20058;BMP180;10189;49.546;7.906;2023-10-19T07:23:01;96151.00;;;17.20
20058;BMP180;10189;49.546;7.906;2023-10-19T07:25:48;96145.00;;;17.20
20058;BMP180;10189;49.546;7.906;2023-10-19T07:28:18;96144.00;;;17.40
20058;BMP180;10189;49.546;7.906;2023-10-19T07:30:45;96132.00;;;17.40
20058;BMP180;10189;49.546;7.906;2023-10-19T07:33:12;96138.00;;;17.40
20058;BMP180;10189;49.546;7.906;2023-10-19T07:35:50;96142.00;;;17.40
20058;BMP180;10189;49.546;7.906;2023-10-19T07:38:26;96154.00;;;17.50
20058;BMP180;10189;49.546;7.906;2023-10-19T07:40:54;96147.00;;;17.60
20058;BMP180;10189;49.546;7.906;2023-10-19T07:43:20;96159.00;;;17.50
20058;BMP180;10189;49.546;7.906;2023-10-19T07:45:46;96156.00;;;17.60
20058;BMP180;10189;49.546;7.906;2023-10-19T07:48:14;96158.00;;;17.70
20058;BMP180;10189;49.546;7.906;2023-10-19T07:50:40;96149.00;;;17.60
20058;BMP180;10189;49.546;7.906;2023-10-19T07:53:08;96155.00;;;17.60
20058;BMP180;10189;49.546;7.906;2023-10-19T07:55:35;96152.00;;;17.70
20058;BMP180;10189;49.546;7.906;2023-10-19T07:58:02;96149.00;;;17.80
20058;BMP180;10189;49.546;7.906;2023-10-19T08:00:32;96146.00;;;17.90
20058;BMP180;10189;49.546;7.906;2023-10-19T08:03:02;96158.00;;;17.90
20058;BMP180;10189;49.546;7.906;2023-10-19T08:05:28;96137.00;;;18.00
20058;BMP180;10189;49.546;7.906;2023-10-19T08:07:54;96141.00;;;18.00
20058;BMP180;10189;49.546;7.906;2023-10-19T08:10:22;96139.00;;;18.10
20058;BMP180;10189;49.546;7.906;2023-10-19T08:12:49;96140.00;;;18.20
20058;BMP180;10189;49.546;7.906;2023-10-19T08:15:17;96131.00;;;18.40
20058;BMP180;10189;49.546;7.906;2023-10-19T08:17:45;96138.00;;;18.40
20058;BMP180;10189;49.546;7.906;2023-10-19T08:20:14;96137.00;;;18.40
20058;BMP180;10189;49.546;7.906;2023-10-19T08:22:52;96127.00;;;18.50
20058;BMP180;10189;49.546;7.906;2023-10-19T08:25:19;96133.00;;;18.50
20058;BMP180;10189;49.546;7.906;2023-10-19T08:27:47;96131.00;;;18.50
20058;BMP180;10189;49.546;7.906;2023-10-19T08:30:20;96134.00;;;18.40
20058;BMP180;10189;49.546;7.906;2023-10-19T08:32:47;96132.00;;;18.40
20058;BMP180;10189;49.546;7.906;2023-10-19T08:35:19;96114.00;;;18.40
20058;BMP180;10189;49.546;7.906;2023-10-19T08:37:53;96109.00;;;18.50
20058;BMP180;10189;49.546;7.906;2023-10-19T08:40:19;96107.00;;;18.80
20058;BMP180;10189;49.546;7.906;2023-10-19T08:42:47;96113.00;;;19.10
20058;BMP180;10189;49.546;7.906;2023-10-19T08:45:14;96117.00;;;19.50
20058;BMP180;10189;49.546;7.906;2023-10-19T08:48:00;96111.00;;;19.80
20058;BMP180;10189;49.546;7.906;2023-10-19T08:50:32;96101.00;;;20.00
20058;BMP180;10189;49.546;7.906;2023-10-19T08:53:04;96101.00;;;20.10
20058;BMP180;10189;49.546;7.906;2023-10-19T08:55:32;96109.00;;;19.90
20058;BMP180;10189;49.546;7.906;2023-10-19T08:58:00;96097.00;;;19.90
20058;BMP180;10189;49.546;7.906;2023-10-19T09:00:26;96100.00;;;20.20
20058;BMP180;10189;49.546;7.906;2023-10-19T09:02:55;96094.00;;;20.40
20058;BMP180;10189;49.546;7.906;2023-10-19T09:05:25;96087.00;;;20.20
20058;BMP180;10189;49.546;7.906;2023-10-19T09:07:55;96078.00;;;19.90
20058;BMP180;10189;49.546;7.906;2023-10-19T09:10:26;96077.00;;;20.10
20058;BMP180;10189;49.546;7.906;2023-10-19T09:13:07;96083.00;;;20.10
20058;BMP180;10189;49.546;7.906;2023-10-19T09:15:39;96084.00;;;20.10
20058;BMP180;10189;49.546;7.906;2023-10-19T09:18:23;96086.00;;;20.30
20058;BMP180;10189;49.546;7.906;2023-10-19T09:20:52;96071.00;;;20.60
20058;BMP180;10189;49.546;7.906;2023-10-19T09:23:25;96069.00;;;20.70
20058;BMP180;10189;49.546;7.906;2023-10-19T09:25:58;96079.00;;;20.50
20058;BMP180;10189;49.546;7.906;2023-10-19T09:28:26;96070.00;;;20.40
20058;BMP180;10189;49.546;7.906;2023-10-19T09:30:52;96077.00;;;20.20
20058;BMP180;10189;49.546;7.906;2023-10-19T09:33:19;96073.00;;;19.90
20058;BMP180;10189;49.546;7.906;2023-10-19T09:35:48;96076.00;;;19.90
20058;BMP180;10189;49.546;7.906;2023-10-19T09:38:16;96071.00;;;20.10
20058;BMP180;10189;49.546;7.906;2023-10-19T09:40:48;96071.00;;;20.30
20058;BMP180;10189;49.546;7.906;2023-10-19T09:43:44;96064.00;;;20.40
20058;BMP180;10189;49.546;7.906;2023-10-19T09:46:12;96079.00;;;20.60
20058;BMP180;10189;49.546;7.906;2023-10-19T09:48:46;96089.00;;;20.80
20058;BMP180;10189;49.546;7.906;2023-10-19T09:51:14;96082.00;;;20.80
20058;BMP180;10189;49.546;7.906;2023-10-19T09:53:46;96083.00;;;21.00
20058;BMP180;10189;49.546;7.906;2023-10-19T09:56:23;96074.00;;;21.00
20058;BMP180;10189;49.546;7.906;2023-10-19T09:59:01;96081.00;;;20.90
20058;BMP180;10189;49.546;7.906;2023-10-19T10:01:28;96085.00;;;20.80
20058;BMP180;10189;49.546;7.906;2023-10-19T10:03:54;96067.00;;;20.50
20058;BMP180;10189;49.546;7.906;2023-10-19T10:09:18;96072.00;;;20.50
20058;BMP180;10189;49.546;7.906;2023-10-19T10:11:49;96077.00;;;20.70
20058;BMP180;10189;49.546;7.906;2023-10-19T10:14:27;96073.00;;;20.80
20058;BMP180;10189;49.546;7.906;2023-10-19T10:17:04;96066.00;;;20.90
20058;BMP180;10189;49.546;7.906;2023-10-19T10:19:35;96071.00;;;20.80
20058;BMP180;10189;49.546;7.906;2023-10-19T10:22:09;96080.00;;;21.00
20058;BMP180;10189;49.546;7.906;2023-10-19T10:24:43;96078.00;;;21.00
20058;BMP180;10189;49.546;7.906;2023-10-19T10:27:10;96080.00;;;21.10
20058;BMP180;10189;49.546;7.906;2023-10-19T10:30:01;96074.00;;;21.30
20058;BMP180;10189;49.546;7.906;2023-10-19T10:32:58;96070.00;;;21.30
20058;BMP180;10189;49.546;7.906;2023-10-19T10:38:05;96071.00;;;21.20
20058;BMP180;10189;49.546;7.906;2023-10-19T10:40:47;96059.00;;;21.30
20058;BMP180;10189;49.546;7.906;2023-10-19T10:43:14;96071.00;;;21.40
20058;BMP180;10189;49.546;7.906;2023-10-19T10:45:41;96069.00;;;21.30
20058;BMP180;10189;49.546;7.906;2023-10-19T10:48:14;96070.00;;;21.20
20058;BMP180;10189;49.546;7.906;2023-10-19T10:50:41;96070.00;;;21.00
20058;BMP180;10189;49.546;7.906;2023-10-19T10:53:08;96072.00;;;21.00
20058;BMP180;10189;49.546;7.906;2023-10-19T10:55:37;96078.00;;;20.90
20058;BMP180;10189;49.546;7.906;2023-10-19T10:58:05;96071.00;;;20.80
20058;BMP180;10189;49.546;7.906;2023-10-19T11:00:31;96066.00;;;20.80
20058;BMP180;10189;49.546;7.906;2023-10-19T11:03:06;96057.00;;;20.70
20058;BMP180;10189;49.546;7.906;2023-10-19T11:05:37;96057.00;;;20.70
20058;BMP180;10189;49.546;7.906;2023-10-19T11:08:09;96059.00;;;20.70
20058;BMP180;10189;49.546;7.906;2023-10-19T11:10:43;96055.00;;;20.70
20058;BMP180;10189;49.546;7.906;2023-10-19T11:13:16;96047.00;;;20.60
20058;BMP180;10189;49.546;7.906;2023-10-19T11:15:54;96043.00;;;20.40
20058;BMP180;10189;49.546;7.906;2023-10-19T11:18:39;96047.00;;;20.30
20058;BMP180;10189;49.546;7.906;2023-10-19T11:21:11;96050.00;;;20.20
20058;BMP180;10189;49.546;7.906;2023-10-19T11:23:43;96039.00;;;20.10
20058;BMP180;10189;49.546;7.906;2023-10-19T11:26:11;96044.00;;;20.10
20058;BMP180;10189;49.546;7.906;2023-10-19T11:28:38;96043.00;;;20.00
20058;BMP180;10189;49.546;7.906;2023-10-19T11:31:17;96048.00;;;19.80
20058;BMP180;10189;49.546;7.906;2023-10-19T11:33:48;96038.00;;;19.70
20058;BMP180;10189;49.546;7.906;2023-10-19T11:36:16;96044.00;;;19.60
20058;BMP180;10189;49.546;7.906;2023-10-19T11:38:46;96040.00;;;19.50
20058;BMP180;10189;49.546;7.906;2023-10-19T11:41:13;96034.00;;;19.40
20058;BMP180;10189;49.546;7.906;2023-10-19T11:43:41;96030.00;;;19.40
20058;BMP180;10189;49.546;7.906;2023-10-19T11:46:09;96036.00;;;19.30
20058;BMP180;10189;49.546;7.906;2023-10-19T11:48:36;96036.00;;;19.20
20058;BMP180;10189;49.546;7.906;2023-10-19T11:51:03;96026.00;;;19.20
20058;BMP180;10189;49.546;7.906;2023-10-19T11:53:34;96041.00;;;19.20
20058;BMP180;10189;49.546;7.906;2023-10-19T11:56:06;96041.00;;;19.20
20058;BMP180;10189;49.546;7.906;2023-10-19T11:58:35;96040.00;;;19.10
20058;BMP180;10189;49.546;7.906;2023-10-19T12:01:03;96049.00;;;19.10
20058;BMP180;10189;49.546;7.906;2023-10-19T12:03:33;96055.00;;;19.10
20058;BMP180;10189;49.546;7.906;2023-10-19T12:06:04;96047.00;;;19.10
20058;BMP180;10189;49.546;7.906;2023-10-19T12:08:35;96034.00;;;19.10
20058;BMP180;10189;49.546;7.906;2023-10-19T12:11:02;96022.00;;;19.00
20058;BMP180;10189;49.546;7.906;2023-10-19T12:13:41;96030.00;;;19.10
20058;BMP180;10189;49.546;7.906;2023-10-19T12:16:12;96024.00;;;19.20
20058;BMP180;10189;49.546;7.906;2023-10-19T12:18:42;96016.00;;;19.40
20058;BMP180;10189;49.546;7.906;2023-10-19T12:21:09;96016.00;;;19.60
20058;BMP180;10189;49.546;7.906;2023-10-19T12:23:42;96008.00;;;19.60
20058;BMP180;10189;49.546;7.906;2023-10-19T12:26:09;96019.00;;;19.60
20058;BMP180;10189;49.546;7.906;2023-10-19T12:28:39;96027.00;;;19.80
20058;BMP180;10189;49.546;7.906;2023-10-19T12:31:09;96020.00;;;19.90
20058;BMP180;10189;49.546;7.906;2023-10-19T12:33:39;96021.00;;;19.90
20058;BMP180;10189;49.546;7.906;2023-10-19T12:36:07;96022.00;;;19.80
20058;BMP180;10189;49.546;7.906;2023-10-19T12:38:54;96020.00;;;19.70
20058;BMP180;10189;49.546;7.906;2023-10-19T12:41:24;96022.00;;;19.60
20058;BMP180;10189;49.546;7.906;2023-10-19T12:43:50;96037.00;;;19.80
20058;BMP180;10189;49.546;7.906;2023-10-19T12:46:34;96028.00;;;19.60
20058;BMP180;10189;49.546;7.906;2023-10-19T12:49:05;96035.00;;;19.40
20058;BMP180;10189;49.546;7.906;2023-10-19T12:51:39;96042.00;;;19.30
20058;BMP180;10189;49.546;7.906;2023-10-19T12:54:07;96035.00;;;18.90
20058;BMP180;10189;49.546;7.906;2023-10-19T12:56:36;96037.00;;;18.90
20058;BMP180;10189;49.546;7.906;2023-10-19T12:59:01;96031.00;;;19.00
20058;BMP180;10189;49.546;7.906;2023-10-19T13:01:27;96028.00;;;18.90
20058;BMP180;10189;49.546;7.906;2023-10-19T13:03:53;96021.00;;;18.80
20058;BMP180;10189;49.546;7.906;2023-10-19T13:06:19;96014.00;;;18.90
20058;BMP180;10189;49.546;7.906;2023-10-19T13:08:45;96007.00;;;19.00
20058;BMP180;10189;49.546;7.906;2023-10-19T13:11:11;96001.00;;;18.80
20058;BMP180;10189;49.546;7.906;2023-10-19T13:13:40;96000.00;;;19.00
20058;BMP180;10189;49.546;7.906;2023-10-19T13:16:07;96007.00;;;18.90
20058;BMP180;10189;49.546;7.906;2023-10-19T13:18:35;95999.00;;;19.00
20058;BMP180;10189;49.546;7.906;2023-10-19T13:21:02;95990.00;;;19.00
20058;BMP180;10189;49.546;7.906;2023-10-19T13:23:31;95992.00;;;18.90
20058;BMP180;10189;49.546;7.906;2023-10-19T13:26:02;95990.00;;;18.90
20058;BMP180;10189;49.546;7.906;2023-10-19T13:28:35;95989.00;;;18.80
20058;BMP180;10189;49.546;7.906;2023-10-19T13:31:04;95997.00;;;18.70
20058;BMP180;10189;49.546;7.906;2023-10-19T13:33:30;95996.00;;;18.60
20058;BMP180;10189;49.546;7.906;2023-10-19T13:35:57;95993.00;;;18.60
20058;BMP180;10189;49.546;7.906;2023-10-19T13:38:24;95994.00;;;18.50
20058;BMP180;10189;49.546;7.906;2023-10-19T13:40:50;96000.00;;;18.50
20058;BMP180;10189;49.546;7.906;2023-10-19T13:43:19;95994.00;;;18.50
20058;BMP180;10189;49.546;7.906;2023-10-19T13:45:47;96001.00;;;18.40
20058;BMP180;10189;49.546;7.906;2023-10-19T13:48:14;95983.00;;;18.40
20058;BMP180;10189;49.546;7.906;2023-10-19T13:50:47;95987.00;;;18.40
20058;BMP180;10189;49.546;7.906;2023-10-19T13:53:17;95964.00;;;18.40
20058;BMP180;10189;49.546;7.906;2023-10-19T13:55:44;95961.00;;;18.40
20058;BMP180;10189;49.546;7.906;2023-10-19T13:58:10;95954.00;;;18.50
20058;BMP180;10189;49.546;7.906;2023-10-19T14:00:37;95938.00;;;18.30
20058;BMP180;10189;49.546;7.906;2023-10-19T14:03:06;95929.00;;;18.40
20058;BMP180;10189;49.546;7.906;2023-10-19T14:08:06;95907.00;;;18.60
20058;BMP180;10189;49.546;7.906;2023-10-19T14:10:34;95905.00;;;18.50
20058;BMP180;10189;49.546;7.906;2023-10-19T14:13:00;95897.00;;;18.50
20058;BMP180;10189;49.546;7.906;2023-10-19T14:15:26;95887.00;;;18.70
20058;BMP180;10189;49.546;7.906;2023-10-19T14:17:56;95880.00;;;18.70
20058;BMP180;10189;49.546;7.906;2023-10-19T14:20:29;95864.00;;;18.80
20058;BMP180;10189;49.546;7.906;2023-10-19T14:22:56;95865.00;;;18.80
20058;BMP180;10189;49.546;7.906;2023-10-19T14:25:22;95851.00;;;18.80
20058;BMP180;10189;49.546;7.906;2023-10-19T14:27:52;95846.00;;;18.80
20058;BMP180;10189;49.546;7.906;2023-10-19T14:30:25;95825.00;;;18.80
20058;BMP180;10189;49.546;7.906;2023-10-19T14:32:52;95809.00;;;18.90
20058;BMP180;10189;49.546;7.906;2023-10-19T14:35:22;95801.00;;;19.00
20058;BMP180;10189;49.546;7.906;2023-10-19T14:37:51;95802.00;;;19.20
20058;BMP180;10189;49.546;7.906;2023-10-19T14:40:26;95802.00;;;19.40